Uni-arise — 3FSV7 — position and weather

sailwx.info

Track history (hours):
 
Tides and Currents Weather Stations Pressure Air Temp Water Temp Dewpoint Dewpoint Depression Visibility Wind Speed Wind Dir Waves Ship Positions

Uni-arise

Last reported at 2016-Aug-25 10:31 UTC. Time now 2016-Aug-27 02:47 UTC.
Position N 33°59' E 134°56'.

Length 165 m; draft 8.3 m.

Type: Ship (hazmat cat D). MMSI: 351608000.

Date/timePositionNaut miles runAvg speedWind from/ knotsBaromVisibWave heightAir tempDewpointWater temp
2016-Aug-25 10:31N 33°59' E 134°56'1313.8
2016-Aug-25 09:33N 34°12' E 134°57'1212.2
2016-Aug-25 08:33N 34°24' E 135°01'1615.8
2016-Aug-25 07:33N 34°35' E 135°14'5 4.0
2016-Aug-25 06:23N 34°40' E 135°14'0 0.0
2016-Aug-25 04:29N 34°40' E 135°14'0 0.0
2016-Aug-25 03:29N 34°40' E 135°14'0 0.0
2016-Aug-25 02:23N 34°40' E 135°14'0 0.0
2016-Aug-25 01:23N 34°40' E 135°14'0 0.0
2016-Aug-25 00:29N 34°40' E 135°14'0 0.0
2016-Aug-24 23:29N 34°40' E 135°14'0 0.0
2016-Aug-24 22:33N 34°40' E 135°14'6 5.6
2016-Aug-24 21:33N 34°38' E 135°21'3 2.8
2016-Aug-24 20:33N 34°39' E 135°24'0 0.0
2016-Aug-24 19:26N 34°39' E 135°24'0 0.0
2016-Aug-24 18:32N 34°39' E 135°24'0 0.0
2016-Aug-24 17:32N 34°39' E 135°24'0 0.0
2016-Aug-24 16:32N 34°39' E 135°24'0 0.0
2016-Aug-24 15:32N 34°39' E 135°24'0 0.0
2016-Aug-24 14:20N 34°39' E 135°24'0 0.1
2016-Aug-24 13:26N 34°39' E 135°24'0 0.0
2016-Aug-24 12:26N 34°39' E 135°24'0 0.0
2016-Aug-24 11:27N 34°39' E 135°24'0 0.1
2016-Aug-24 10:32N 34°39' E 135°24'0 0.0
2016-Aug-24 09:32N 34°39' E 135°24'0 0.0
2016-Aug-24 08:32N 34°39' E 135°24'0 0.4
2016-Aug-24 07:33N 34°39' E 135°24'1211.9
2016-Aug-24 06:33N 34°31' E 135°13'2814.1
2016-Aug-24 04:33N 34°05' E 134°59'  
2016-Aug-20 11:16N 22°51' E 119°59'6 7.9
2016-Aug-20 10:33N 22°46' E 120°02'1312.8
2016-Aug-20 09:33N 22°35' E 120°08'1110.5
2016-Aug-20 08:33N 22°33' E 120°19'2 1.3
2016-Aug-20 07:17N 22°35' E 120°18'0 0.0
2016-Aug-20 06:29N 22°35' E 120°18'0 0.0
2016-Aug-20 05:23N 22°35' E 120°18'0 0.0
2016-Aug-20 04:29N 22°35' E 120°18'0 0.0
2016-Aug-20 03:29N 22°35' E 120°18'0 0.0
2016-Aug-20 02:29N 22°35' E 120°18'0 0.0
2016-Aug-20 01:29N 22°35' E 120°18'0 0.0
2016-Aug-20 00:23N 22°35' E 120°18'2 2.3
2016-Aug-19 23:22N 22°33' E 120°17'2 2.0
2016-Aug-19 22:33N 22°32' E 120°15'0 0.2
2016-Aug-19 19:25N 22°31' E 120°16'0 0.1
2016-Aug-19 18:31N 22°31' E 120°16'0 0.0
2016-Aug-19 15:31N 22°31' E 120°15'0 0.0
2016-Aug-19 12:25N 22°31' E 120°15'0 0.0
2016-Aug-19 11:31N 22°31' E 120°15'0 0.2
2016-Aug-19 10:31N 22°31' E 120°15'0 0.2
2016-Aug-19 09:34N 22°31' E 120°15'1010.1
2016-Aug-19 08:34N 22°30' E 120°05'31315.5
2016-Aug-18 12:23N 22°07' E 114°27'23 7.8
2016-Aug-18 09:30N 22°20' E 114°08'0 0.0
2016-Aug-18 08:30N 22°20' E 114°08'0 0.0
2016-Aug-17 23:24N 22°20' E 114°08'1 1.5
2016-Aug-17 22:33N 22°19' E 114°06'  
Track history (hours):
 
Tides and Currents Weather Stations Pressure Air Temp Water Temp Dewpoint Dewpoint Depression Visibility Wind Speed Wind Dir Waves Ship Positions

Uni-arise

Last reported at 2016-Aug-25 10:31 UTC. Time now 2016-Aug-27 02:47 UTC.
Position N 33°59' E 134°56'.

Length 165 m; draft 8.3 m.

Type: Ship (hazmat cat D). MMSI: 351608000.

Date/timePositionNaut miles runAvg speedWind from/ knotsBaromVisibWave heightAir tempDewpointWater temp
2016-Aug-25 10:31N 33°59' E 134°56'1313.8
2016-Aug-25 09:33N 34°12' E 134°57'1212.2
2016-Aug-25 08:33N 34°24' E 135°01'1615.8
2016-Aug-25 07:33N 34°35' E 135°14'5 4.0
2016-Aug-25 06:23N 34°40' E 135°14'0 0.0
2016-Aug-25 04:29N 34°40' E 135°14'0 0.0
2016-Aug-25 03:29N 34°40' E 135°14'0 0.0
2016-Aug-25 02:23N 34°40' E 135°14'0 0.0
2016-Aug-25 01:23N 34°40' E 135°14'0 0.0
2016-Aug-25 00:29N 34°40' E 135°14'0 0.0
2016-Aug-24 23:29N 34°40' E 135°14'0 0.0
2016-Aug-24 22:33N 34°40' E 135°14'6 5.6
2016-Aug-24 21:33N 34°38' E 135°21'3 2.8
2016-Aug-24 20:33N 34°39' E 135°24'0 0.0
2016-Aug-24 19:26N 34°39' E 135°24'0 0.0
2016-Aug-24 18:32N 34°39' E 135°24'0 0.0
2016-Aug-24 17:32N 34°39' E 135°24'0 0.0
2016-Aug-24 16:32N 34°39' E 135°24'0 0.0
2016-Aug-24 15:32N 34°39' E 135°24'0 0.0
2016-Aug-24 14:20N 34°39' E 135°24'0 0.1
2016-Aug-24 13:26N 34°39' E 135°24'0 0.0
2016-Aug-24 12:26N 34°39' E 135°24'0 0.0
2016-Aug-24 11:27N 34°39' E 135°24'0 0.1
2016-Aug-24 10:32N 34°39' E 135°24'0 0.0
2016-Aug-24 09:32N 34°39' E 135°24'0 0.0
2016-Aug-24 08:32N 34°39' E 135°24'0 0.4
2016-Aug-24 07:33N 34°39' E 135°24'1211.9
2016-Aug-24 06:33N 34°31' E 135°13'2814.1
2016-Aug-24 04:33N 34°05' E 134°59'  
2016-Aug-20 11:16N 22°51' E 119°59'6 7.9
2016-Aug-20 10:33N 22°46' E 120°02'1312.8
2016-Aug-20 09:33N 22°35' E 120°08'1110.5
2016-Aug-20 08:33N 22°33' E 120°19'2 1.3
2016-Aug-20 07:17N 22°35' E 120°18'0 0.0
2016-Aug-20 06:29N 22°35' E 120°18'0 0.0
2016-Aug-20 05:23N 22°35' E 120°18'0 0.0
2016-Aug-20 04:29N 22°35' E 120°18'0 0.0
2016-Aug-20 03:29N 22°35' E 120°18'0 0.0
2016-Aug-20 02:29N 22°35' E 120°18'0 0.0
2016-Aug-20 01:29N 22°35' E 120°18'0 0.0
2016-Aug-20 00:23N 22°35' E 120°18'2 2.3
2016-Aug-19 23:22N 22°33' E 120°17'2 2.0
2016-Aug-19 22:33N 22°32' E 120°15'0 0.2
2016-Aug-19 19:25N 22°31' E 120°16'0 0.1
2016-Aug-19 18:31N 22°31' E 120°16'0 0.0
2016-Aug-19 15:31N 22°31' E 120°15'0 0.0
2016-Aug-19 12:25N 22°31' E 120°15'0 0.0
2016-Aug-19 11:31N 22°31' E 120°15'0 0.2
2016-Aug-19 10:31N 22°31' E 120°15'0 0.2
2016-Aug-19 09:34N 22°31' E 120°15'1010.1
2016-Aug-19 08:34N 22°30' E 120°05'31315.5
2016-Aug-18 12:23N 22°07' E 114°27'23 7.8
2016-Aug-18 09:30N 22°20' E 114°08'0 0.0
2016-Aug-18 08:30N 22°20' E 114°08'0 0.0
2016-Aug-17 23:24N 22°20' E 114°08'1 1.5
2016-Aug-17 22:33N 22°19' E 114°06'  

Dump ship's entire track history